Time;durP1;ratioP1;P1;durP2;ratioP2;P2;SDS_P1;SDS_P2;PMS_P1;PMS_P2;Temp;Humidity;BMP_temperature;BMP_pressure;BME280_temperature;BME280_humidity;BME280_pressure;Samples;Min_cycle;Max_cycle;Signal;HPM_P1;HPM_P2
2023/11/16 00:01:35;;;;;;;8.30;3.30;;;;;;;;;;5048681;28;20219;-89
2023/11/16 00:04:01;;;;;;;12.43;5.30;;;;;;;;;;5017277;28;20201;-88
2023/11/16 00:06:27;;;;;;;12.68;3.50;;;;;;;;;;5035618;28;20659;-90
2023/11/16 00:08:53;;;;;;;9.25;2.42;;;;;;;;;;5045650;28;20193;-90
2023/11/16 00:11:19;;;;;;;20.20;3.78;;;;;;;;;;5046639;28;20185;-87
2023/11/16 00:13:46;;;;;;;14.27;3.25;;;;;;;;;;5038018;28;20249;-86
2023/11/16 00:16:16;;;;;;;10.98;3.60;;;;;;;;;;5018156;28;20240;-90
2023/11/16 00:18:42;;;;;;;12.85;3.17;;;;;;;;;;5028050;28;20182;-90
2023/11/16 00:21:09;;;;;;;6.43;2.65;;;;;;;;;;5024478;28;20281;-90
2023/11/16 00:23:35;;;;;;;12.32;3.10;;;;;;;;;;5038404;28;20195;-90
2023/11/16 00:26:02;;;;;;;9.43;2.60;;;;;;;;;;5016254;28;20198;-90
2023/11/16 00:28:28;;;;;;;15.15;3.47;;;;;;;;;;5041076;28;20254;-89
2023/11/16 00:30:54;;;;;;;7.90;3.08;;;;;;;;;;5046980;28;20172;-90
2023/11/16 00:33:20;;;;;;;9.25;3.15;;;;;;;;;;5057548;28;20220;-90
2023/11/16 00:35:47;;;;;;;15.80;3.30;;;;;;;;;;5026673;28;20235;-87
2023/11/16 00:38:15;;;;;;;15.77;3.60;;;;;;;;;;5039831;28;20184;-91
2023/11/16 00:40:42;;;;;;;12.93;3.65;;;;;;;;;;5042106;28;20181;-90
2023/11/16 00:43:08;;;;;;;9.43;2.67;;;;;;;;;;5039188;28;20501;-90
2023/11/16 00:45:37;;;;;;;11.93;3.67;;;;;;;;;;5021508;28;20191;-89
2023/11/16 00:48:03;;;;;;;10.35;2.80;;;;;;;;;;5060051;28;20183;-90
2023/11/16 00:50:29;;;;;;;20.95;3.50;;;;;;;;;;5046228;28;20196;-90
2023/11/16 00:52:55;;;;;;;6.35;3.10;;;;;;;;;;5037240;28;20290;-91
2023/11/16 00:55:22;;;;;;;8.45;3.58;;;;;;;;;;5047166;28;20182;-90
2023/11/16 00:57:51;;;;;;;7.18;3.05;;;;;;;;;;5036190;28;20182;-88
2023/11/16 01:00:17;;;;;;;16.95;3.92;;;;;;;;;;5038062;28;20183;-89
2023/11/16 01:02:43;;;;;;;15.95;3.42;;;;;;;;;;5036644;28;20672;-90
2023/11/16 01:05:10;;;;;;;9.70;2.80;;;;;;;;;;5048738;28;20207;-88
2023/11/16 01:07:38;;;;;;;12.02;3.33;;;;;;;;;;5039791;28;20174;-90
2023/11/16 01:10:06;;;;;;;8.00;2.35;;;;;;;;;;5036207;28;20200;-89
2023/11/16 01:12:32;;;;;;;7.90;3.00;;;;;;;;;;5039000;28;20598;-89
2023/11/16 01:14:59;;;;;;;9.63;3.03;;;;;;;;;;5037207;28;20190;-90
2023/11/16 01:17:32;;;;;;;7.05;3.00;;;;;;;;;;5031781;28;20502;-90
2023/11/16 01:20:00;;;;;;;17.30;3.20;;;;;;;;;;5039395;28;20177;-90
2023/11/16 01:22:29;;;;;;;11.98;3.75;;;;;;;;;;5031801;28;20185;-91
2023/11/16 01:24:55;;;;;;;11.60;2.35;;;;;;;;;;5037656;28;20188;-92
2023/11/16 01:27:29;;;;;;;10.55;3.25;;;;;;;;;;5037165;28;20582;-92
2023/11/16 01:29:55;;;;;;;14.82;3.05;;;;;;;;;;5043119;28;20246;-91
2023/11/16 01:32:21;;;;;;;10.30;2.40;;;;;;;;;;5042005;28;20221;-91
2023/11/16 01:34:47;;;;;;;6.57;2.73;;;;;;;;;;5045627;28;20947;-92
2023/11/16 01:37:13;;;;;;;9.02;3.25;;;;;;;;;;5024655;28;20448;-91
2023/11/16 01:39:39;;;;;;;13.63;2.83;;;;;;;;;;5035238;28;20192;-90
2023/11/16 01:42:06;;;;;;;8.30;2.65;;;;;;;;;;5037228;28;20966;-90
2023/11/16 01:44:32;;;;;;;10.38;2.78;;;;;;;;;;5038728;28;20185;-90
2023/11/16 01:46:58;;;;;;;14.02;3.15;;;;;;;;;;5043576;28;20645;-91
2023/11/16 01:49:25;;;;;;;14.82;2.80;;;;;;;;;;5047922;28;20181;-92
2023/11/16 01:51:57;;;;;;;6.60;2.55;;;;;;;;;;5040362;28;20181;-91
2023/11/16 01:54:24;;;;;;;12.85;3.20;;;;;;;;;;5025997;28;20223;-91
2023/11/16 01:56:51;;;;;;;8.20;3.35;;;;;;;;;;5042351;28;20229;-91
2023/11/16 01:59:18;;;;;;;9.02;2.47;;;;;;;;;;5033380;28;20178;-91
2023/11/16 02:01:44;;;;;;;13.48;3.08;;;;;;;;;;5044900;28;20177;-92
2023/11/16 02:04:10;;;;;;;11.77;2.53;;;;;;;;;;5037169;28;20240;-90
2023/11/16 02:06:36;;;;;;;9.63;3.50;;;;;;;;;;5042640;28;20917;-91
2023/11/16 02:09:02;;;;;;;9.90;3.17;;;;;;;;;;5028438;28;20440;-91
2023/11/16 02:11:28;;;;;;;21.37;2.70;;;;;;;;;;5056417;28;20190;-91
2023/11/16 02:13:54;;;;;;;18.60;2.80;;;;;;;;;;5038975;28;20479;-92
2023/11/16 02:16:20;;;;;;;10.77;3.07;;;;;;;;;;5045036;28;20179;-91
2023/11/16 02:18:47;;;;;;;12.43;2.53;;;;;;;;;;5026080;28;20508;-91
2023/11/16 02:21:13;;;;;;;12.13;2.72;;;;;;;;;;5023872;28;20464;-91
2023/11/16 02:23:40;;;;;;;14.93;3.20;;;;;;;;;;5041419;28;20190;-91
2023/11/16 02:26:07;;;;;;;16.42;2.72;;;;;;;;;;5050825;28;20186;-91
2023/11/16 02:28:34;;;;;;;13.95;4.72;;;;;;;;;;5034392;28;20207;-91
2023/11/16 02:31:03;;;;;;;8.40;2.67;;;;;;;;;;5041681;28;20178;-91
2023/11/16 02:33:30;;;;;;;13.05;2.67;;;;;;;;;;5041982;28;20235;-91
2023/11/16 02:35:57;;;;;;;5.28;2.35;;;;;;;;;;5036719;28;20268;-90
2023/11/16 02:38:23;;;;;;;5.40;2.15;;;;;;;;;;5031777;28;20178;-91
2023/11/16 02:40:52;;;;;;;8.85;2.10;;;;;;;;;;5032179;28;20185;-92
2023/11/16 02:43:21;;;;;;;5.68;2.70;;;;;;;;;;5042739;28;20194;-92
2023/11/16 02:45:50;;;;;;;9.73;2.60;;;;;;;;;;5041882;28;20182;-92
2023/11/16 02:48:16;;;;;;;10.10;2.70;;;;;;;;;;5038230;28;20183;-92
2023/11/16 02:50:43;;;;;;;6.55;2.38;;;;;;;;;;5023275;28;20349;-91
2023/11/16 02:53:10;;;;;;;8.13;2.47;;;;;;;;;;5044285;28;20241;-92
2023/11/16 02:55:36;;;;;;;7.38;2.60;;;;;;;;;;5037362;28;20205;-91
2023/11/16 02:58:02;;;;;;;13.53;3.20;;;;;;;;;;5038111;28;20197;-92
2023/11/16 03:00:28;;;;;;;8.60;2.33;;;;;;;;;;5051281;28;20438;-91
2023/11/16 03:02:54;;;;;;;9.80;2.60;;;;;;;;;;5049284;28;20412;-92
2023/11/16 03:05:23;;;;;;;9.07;2.23;;;;;;;;;;5039237;28;20232;-89
2023/11/16 03:07:51;;;;;;;12.02;4.07;;;;;;;;;;5042042;28;20431;-90
2023/11/16 03:10:17;;;;;;;8.30;2.72;;;;;;;;;;5025932;28;20182;-91
2023/11/16 03:12:45;;;;;;;6.00;2.85;;;;;;;;;;5036498;28;20192;-92
2023/11/16 03:15:12;;;;;;;6.82;2.90;;;;;;;;;;5036602;28;20531;-91
2023/11/16 03:17:38;;;;;;;9.77;2.35;;;;;;;;;;5041203;28;20185;-91
2023/11/16 03:20:04;;;;;;;10.05;2.22;;;;;;;;;;5038523;28;20276;-91
2023/11/16 03:22:31;;;;;;;10.40;2.45;;;;;;;;;;5036342;28;20189;-92
2023/11/16 03:24:57;;;;;;;5.35;2.28;;;;;;;;;;5037479;28;20182;-88
2023/11/16 03:27:23;;;;;;;15.15;4.10;;;;;;;;;;5039486;28;20538;-91
2023/11/16 03:29:49;;;;;;;10.07;2.45;;;;;;;;;;5037085;28;20182;-89
2023/11/16 03:32:15;;;;;;;11.13;3.05;;;;;;;;;;5039426;28;20186;-91
2023/11/16 03:34:41;;;;;;;10.43;2.65;;;;;;;;;;5038107;28;20564;-89
2023/11/16 03:37:07;;;;;;;8.57;2.90;;;;;;;;;;5036645;28;20267;-91
2023/11/16 03:39:34;;;;;;;13.95;2.67;;;;;;;;;;5042049;28;20214;-91
2023/11/16 03:42:03;;;;;;;10.75;3.05;;;;;;;;;;5036986;28;20184;-91
2023/11/16 03:44:29;;;;;;;15.02;3.17;;;;;;;;;;5043286;28;20189;-91
2023/11/16 03:46:55;;;;;;;9.02;3.03;;;;;;;;;;5035308;28;20185;-91
2023/11/16 03:49:22;;;;;;;10.90;3.67;;;;;;;;;;5023767;28;20190;-92
2023/11/16 03:51:48;;;;;;;9.60;2.65;;;;;;;;;;5040550;28;20257;-90
2023/11/16 03:54:15;;;;;;;12.60;3.10;;;;;;;;;;5046697;28;20213;-92
2023/11/16 03:56:41;;;;;;;10.25;3.83;;;;;;;;;;5049266;28;20185;-90
2023/11/16 03:59:07;;;;;;;7.60;2.85;;;;;;;;;;5023822;28;20190;-93
2023/11/16 04:01:37;;;;;;;14.20;3.20;;;;;;;;;;5029287;28;20189;-91
2023/11/16 04:04:05;;;;;;;12.80;3.15;;;;;;;;;;5044858;28;20425;-91
2023/11/16 04:06:31;;;;;;;10.10;3.17;;;;;;;;;;5042488;28;20218;-92
2023/11/16 04:08:58;;;;;;;17.02;3.25;;;;;;;;;;5047906;28;20188;-92
2023/11/16 04:11:24;;;;;;;13.35;3.30;;;;;;;;;;5040601;28;20194;-91
2023/11/16 04:13:50;;;;;;;10.98;3.97;;;;;;;;;;5038993;28;20214;-92
2023/11/16 04:16:18;;;;;;;8.63;2.97;;;;;;;;;;5023553;28;20265;-91
2023/11/16 04:18:44;;;;;;;4.38;2.70;;;;;;;;;;5033201;28;20188;-92
2023/11/16 04:21:11;;;;;;;10.10;3.05;;;;;;;;;;5040987;28;20182;-91
2023/11/16 04:23:38;;;;;;;6.65;2.83;;;;;;;;;;5026700;28;20186;-91
2023/11/16 04:26:08;;;;;;;10.75;2.65;;;;;;;;;;5024256;28;20181;-90
2023/11/16 04:28:35;;;;;;;16.40;3.35;;;;;;;;;;5043727;28;20260;-91
2023/11/16 04:31:01;;;;;;;9.70;3.35;;;;;;;;;;5058688;28;20185;-87
2023/11/16 04:33:27;;;;;;;12.43;3.25;;;;;;;;;;5018715;28;20323;-90
2023/11/16 04:35:53;;;;;;;5.63;2.07;;;;;;;;;;5039916;28;20185;-91
2023/11/16 04:38:20;;;;;;;8.70;3.20;;;;;;;;;;5044086;28;20429;-91
2023/11/16 04:40:46;;;;;;;9.10;3.10;;;;;;;;;;5041570;28;20456;-91
2023/11/16 04:43:15;;;;;;;11.00;2.40;;;;;;;;;;5048792;28;20262;-91
2023/11/16 04:45:42;;;;;;;9.07;3.28;;;;;;;;;;5027450;28;20430;-89
2023/11/16 04:48:11;;;;;;;8.70;2.55;;;;;;;;;;5038002;28;20258;-91
2023/11/16 04:50:38;;;;;;;6.75;3.25;;;;;;;;;;5032553;28;20178;-92
2023/11/16 04:53:04;;;;;;;13.73;2.80;;;;;;;;;;5059142;28;20704;-90
2023/11/16 04:55:30;;;;;;;7.50;2.97;;;;;;;;;;5034513;28;20196;-91
2023/11/16 04:57:56;;;;;;;7.90;2.83;;;;;;;;;;5036481;28;20453;-91
2023/11/16 05:00:22;;;;;;;6.07;2.60;;;;;;;;;;5024756;28;20933;-90
2023/11/16 05:02:48;;;;;;;7.50;2.90;;;;;;;;;;5037421;28;20863;-91
2023/11/16 05:05:14;;;;;;;11.87;4.33;;;;;;;;;;5029664;28;20441;-91
2023/11/16 05:07:40;;;;;;;10.02;3.97;;;;;;;;;;5043151;28;20425;-90
2023/11/16 05:10:07;;;;;;;8.83;3.83;;;;;;;;;;5040095;28;20236;-90
2023/11/16 05:12:33;;;;;;;8.93;3.70;;;;;;;;;;5036047;28;20434;-90
2023/11/16 05:14:59;;;;;;;6.70;2.47;;;;;;;;;;5034105;28;20248;-90
2023/11/16 05:17:25;;;;;;;9.20;2.97;;;;;;;;;;5035577;28;20490;-91
2023/11/16 05:19:51;;;;;;;5.45;2.67;;;;;;;;;;5038623;28;20500;-90
2023/11/16 05:22:18;;;;;;;14.90;3.00;;;;;;;;;;5040181;28;20180;-91
2023/11/16 05:24:43;;;;;;;8.52;2.88;;;;;;;;;;5044939;28;20196;-90
2023/11/16 05:27:09;;;;;;;12.33;4.03;;;;;;;;;;5047025;28;20187;-91
2023/11/16 05:29:35;;;;;;;9.43;3.65;;;;;;;;;;5036302;28;20427;-91
2023/11/16 05:32:01;;;;;;;7.80;3.87;;;;;;;;;;5031969;28;20191;-90
2023/11/16 05:34:27;;;;;;;10.50;3.60;;;;;;;;;;5041456;28;20476;-90
2023/11/16 05:36:54;;;;;;;12.32;3.53;;;;;;;;;;5041835;28;20431;-90
2023/11/16 05:39:20;;;;;;;10.40;3.03;;;;;;;;;;5035097;28;20185;-90
2023/11/16 05:41:46;;;;;;;5.93;2.90;;;;;;;;;;5055927;28;20271;-90
2023/11/16 05:44:17;;;;;;;8.85;2.80;;;;;;;;;;5038235;28;20430;-90
2023/11/16 05:46:44;;;;;;;6.88;2.85;;;;;;;;;;5037013;28;20184;-90
2023/11/16 05:49:10;;;;;;;6.60;2.70;;;;;;;;;;5046700;28;20184;-89
2023/11/16 05:51:39;;;;;;;6.40;3.50;;;;;;;;;;5036663;28;20188;-90
2023/11/16 05:54:08;;;;;;;11.27;4.13;;;;;;;;;;5024930;28;20239;-90
2023/11/16 05:56:40;;;;;;;9.10;2.55;;;;;;;;;;5047812;28;20178;-90
2023/11/16 05:59:10;;;;;;;10.43;2.90;;;;;;;;;;5040305;28;20263;-89
2023/11/16 06:01:37;;;;;;;8.80;3.47;;;;;;;;;;5040163;28;20185;-89
2023/11/16 06:04:03;;;;;;;12.63;2.50;;;;;;;;;;5039331;28;20285;-89
2023/11/16 06:06:29;;;;;;;10.23;3.90;;;;;;;;;;5034966;28;20179;-90
2023/11/16 06:08:55;;;;;;;11.02;3.53;;;;;;;;;;5040628;28;20182;-90
2023/11/16 06:11:21;;;;;;;10.73;3.50;;;;;;;;;;5044168;28;20199;-90
2023/11/16 06:13:50;;;;;;;12.17;3.53;;;;;;;;;;5038302;28;20457;-89
2023/11/16 06:16:16;;;;;;;8.60;4.50;;;;;;;;;;5040138;28;20430;-89
2023/11/16 06:18:42;;;;;;;10.93;5.75;;;;;;;;;;5033515;28;20243;-90
2023/11/16 06:21:09;;;;;;;17.20;5.13;;;;;;;;;;5015291;28;20210;-88
2023/11/16 06:23:35;;;;;;;7.50;5.35;;;;;;;;;;5042802;28;20837;-90
2023/11/16 06:26:01;;;;;;;4.72;3.38;;;;;;;;;;5040909;28;20271;-90
2023/11/16 06:31:04;;;;;;;6.25;4.43;;;;;;;;;;5246048;22;20484;-87
2023/11/16 06:33:30;;;;;;;8.95;4.30;;;;;;;;;;5025704;28;20230;-88
2023/11/16 06:35:56;;;;;;;11.18;3.85;;;;;;;;;;5021242;28;20181;-88
2023/11/16 06:38:22;;;;;;;8.53;3.33;;;;;;;;;;5037175;28;20189;-88
2023/11/16 06:40:49;;;;;;;14.27;4.07;;;;;;;;;;5037630;28;20412;-87
2023/11/16 06:43:15;;;;;;;7.88;3.42;;;;;;;;;;5043612;28;20178;-87
2023/11/16 06:45:41;;;;;;;6.82;3.50;;;;;;;;;;5039617;28;20179;-86
2023/11/16 06:48:08;;;;;;;4.97;3.60;;;;;;;;;;5019606;28;20630;-86
2023/11/16 06:50:34;;;;;;;5.80;3.10;;;;;;;;;;5033198;28;20458;-87
2023/11/16 06:53:05;;;;;;;9.45;3.40;;;;;;;;;;5019785;28;20263;-87
2023/11/16 06:55:32;;;;;;;7.78;5.18;;;;;;;;;;5042339;28;20220;-85
2023/11/16 06:57:59;;;;;;;4.90;3.03;;;;;;;;;;5019263;28;20694;-86
2023/11/16 07:00:26;;;;;;;9.00;3.20;;;;;;;;;;5040177;28;20645;-85
2023/11/16 07:02:52;;;;;;;5.53;2.95;;;;;;;;;;5028923;28;20184;-86
2023/11/16 07:05:19;;;;;;;8.70;3.10;;;;;;;;;;5042928;28;20184;-87
2023/11/16 07:07:45;;;;;;;5.47;3.55;;;;;;;;;;5021241;28;20639;-87
2023/11/16 07:10:12;;;;;;;6.13;3.00;;;;;;;;;;5023242;28;20185;-85
2023/11/16 07:12:42;;;;;;;6.15;3.28;;;;;;;;;;5022684;28;20428;-86
2023/11/16 07:15:12;;;;;;;11.43;3.42;;;;;;;;;;5020167;28;20196;-86
2023/11/16 07:17:38;;;;;;;10.68;3.60;;;;;;;;;;5010928;28;20177;-87
2023/11/16 07:20:05;;;;;;;9.70;3.70;;;;;;;;;;5021366;28;20634;-86
2023/11/16 07:22:31;;;;;;;12.23;3.60;;;;;;;;;;5047041;28;20179;-86
2023/11/16 07:24:57;;;;;;;11.65;4.18;;;;;;;;;;5041829;28;20193;-86
2023/11/16 07:27:24;;;;;;;7.60;3.60;;;;;;;;;;5004675;28;20194;-86
2023/11/16 07:29:50;;;;;;;13.52;5.05;;;;;;;;;;5030313;28;20233;-86
2023/11/16 07:32:16;;;;;;;10.65;4.80;;;;;;;;;;5022847;28;20203;-86
2023/11/16 07:34:42;;;;;;;10.97;5.20;;;;;;;;;;5005494;28;20198;-86
2023/11/16 07:37:08;;;;;;;7.28;3.25;;;;;;;;;;5034401;28;20404;-85
2023/11/16 07:39:35;;;;;;;7.50;3.63;;;;;;;;;;5045145;28;20262;-85
2023/11/16 07:42:01;;;;;;;8.70;3.30;;;;;;;;;;5042075;28;20178;-86
2023/11/16 07:44:27;;;;;;;10.07;3.55;;;;;;;;;;5027884;28;20182;-85
2023/11/16 07:46:53;;;;;;;5.87;3.20;;;;;;;;;;5004234;28;20185;-85
2023/11/16 07:49:19;;;;;;;9.48;3.50;;;;;;;;;;5017249;28;20448;-85
2023/11/16 07:51:45;;;;;;;9.25;3.67;;;;;;;;;;5027538;28;20177;-86
2023/11/16 07:54:14;;;;;;;12.70;4.10;;;;;;;;;;5024877;28;20205;-86
2023/11/16 07:56:49;;;;;;;14.10;5.90;;;;;;;;;;5025787;28;20241;-86
2023/11/16 07:59:18;;;;;;;13.55;6.32;;;;;;;;;;5019932;28;20185;-85
2023/11/16 08:01:50;;;;;;;11.25;5.45;;;;;;;;;;5046157;28;20324;-86
2023/11/16 08:04:16;;;;;;;9.23;5.22;;;;;;;;;;5038219;28;20185;-86
2023/11/16 08:06:43;;;;;;;15.45;4.90;;;;;;;;;;5021915;28;20185;-85
2023/11/16 08:09:09;;;;;;;14.10;3.65;;;;;;;;;;5039242;28;20178;-86
2023/11/16 08:11:38;;;;;;;7.82;3.35;;;;;;;;;;5032709;28;20640;-86
2023/11/16 08:14:07;;;;;;;6.63;3.78;;;;;;;;;;5028636;28;20598;-85
2023/11/16 08:16:34;;;;;;;11.63;3.60;;;;;;;;;;5041219;28;20190;-86
2023/11/16 08:19:03;;;;;;;10.55;3.65;;;;;;;;;;5034820;28;20189;-86
2023/11/16 08:21:30;;;;;;;18.27;4.28;;;;;;;;;;5044671;28;20669;-86
2023/11/16 08:23:56;;;;;;;10.00;3.80;;;;;;;;;;5040279;28;20576;-86
2023/11/16 08:26:22;;;;;;;6.80;3.33;;;;;;;;;;5027242;28;20188;-86
2023/11/16 08:28:49;;;;;;;8.57;3.97;;;;;;;;;;5025846;28;20214;-86
2023/11/16 08:31:16;;;;;;;7.30;4.00;;;;;;;;;;5021527;28;20292;-85
2023/11/16 08:33:43;;;;;;;11.13;3.28;;;;;;;;;;5029430;28;20708;-86
2023/11/16 08:36:10;;;;;;;14.02;4.00;;;;;;;;;;5019808;28;20193;-86
2023/11/16 08:38:41;;;;;;;6.70;3.35;;;;;;;;;;5022016;28;20177;-86
2023/11/16 08:41:10;;;;;;;7.90;3.58;;;;;;;;;;5018778;28;20175;-85
2023/11/16 08:43:35;;;;;;;8.20;3.97;;;;;;;;;;5021106;28;20587;-85
2023/11/16 08:46:02;;;;;;;14.00;4.10;;;;;;;;;;5011767;28;20188;-86
2023/11/16 08:48:32;;;;;;;7.28;4.00;;;;;;;;;;5018757;28;20429;-86
2023/11/16 08:51:00;;;;;;;8.02;4.00;;;;;;;;;;5025335;28;20186;-86
2023/11/16 08:53:30;;;;;;;8.50;4.38;;;;;;;;;;5022330;28;20210;-86
2023/11/16 08:55:58;;;;;;;5.13;3.45;;;;;;;;;;5026429;28;20641;-87
2023/11/16 08:58:25;;;;;;;6.00;3.72;;;;;;;;;;5023777;28;20190;-86
2023/11/16 09:00:53;;;;;;;13.13;4.85;;;;;;;;;;5023082;28;20207;-86
2023/11/16 09:03:19;;;;;;;8.70;4.07;;;;;;;;;;5021527;28;20187;-86
2023/11/16 09:05:45;;;;;;;10.53;4.40;;;;;;;;;;5015380;28;20183;-87
2023/11/16 09:08:13;;;;;;;10.45;3.67;;;;;;;;;;5022416;28;20437;-86
2023/11/16 09:10:41;;;;;;;5.85;3.30;;;;;;;;;;5023794;28;20176;-86
2023/11/16 09:13:08;;;;;;;8.88;3.42;;;;;;;;;;5017848;28;20206;-86
2023/11/16 09:15:34;;;;;;;14.43;3.50;;;;;;;;;;5024736;28;20183;-86
2023/11/16 09:18:02;;;;;;;8.07;3.45;;;;;;;;;;5018652;28;20175;-86
2023/11/16 09:20:29;;;;;;;7.97;3.40;;;;;;;;;;5022803;28;20249;-86
2023/11/16 09:22:57;;;;;;;11.70;3.42;;;;;;;;;;5018099;28;20186;-86
2023/11/16 09:25:24;;;;;;;6.15;3.10;;;;;;;;;;5023958;28;20175;-86
2023/11/16 09:27:51;;;;;;;7.50;3.30;;;;;;;;;;5020718;28;20243;-87
2023/11/16 09:30:17;;;;;;;6.50;3.65;;;;;;;;;;5025738;28;20322;-85
2023/11/16 09:32:44;;;;;;;6.68;2.90;;;;;;;;;;5015872;28;20650;-87
2023/11/16 09:35:14;;;;;;;6.40;3.08;;;;;;;;;;5019626;28;20182;-87
2023/11/16 09:37:40;;;;;;;8.13;3.13;;;;;;;;;;5025394;28;20189;-87
2023/11/16 09:40:08;;;;;;;10.05;3.10;;;;;;;;;;5016916;28;20182;-86
2023/11/16 09:42:35;;;;;;;5.10;3.25;;;;;;;;;;5025943;28;20193;-85
2023/11/16 09:45:03;;;;;;;5.97;3.03;;;;;;;;;;5013920;28;20555;-86
2023/11/16 09:47:32;;;;;;;8.18;3.67;;;;;;;;;;5016026;28;20185;-86
2023/11/16 09:49:59;;;;;;;12.85;4.03;;;;;;;;;;5022282;28;20179;-85
2023/11/16 09:52:32;;;;;;;6.35;3.10;;;;;;;;;;5019351;28;20178;-85
2023/11/16 09:55:00;;;;;;;5.60;3.05;;;;;;;;;;5028409;28;20271;-86
2023/11/16 09:57:29;;;;;;;6.43;3.42;;;;;;;;;;5022333;28;20299;-87
2023/11/16 09:59:59;;;;;;;7.10;3.30;;;;;;;;;;5021934;28;20178;-86
2023/11/16 10:02:25;;;;;;;6.43;3.67;;;;;;;;;;5002622;28;20202;-86
2023/11/16 10:04:53;;;;;;;8.40;2.75;;;;;;;;;;5024466;28;20184;-86
2023/11/16 10:07:26;;;;;;;6.07;3.00;;;;;;;;;;5026325;28;20225;-86
2023/11/16 10:09:53;;;;;;;6.65;2.65;;;;;;;;;;5019668;28;20174;-86
2023/11/16 10:12:22;;;;;;;6.25;2.85;;;;;;;;;;5013992;28;20191;-86
2023/11/16 10:14:51;;;;;;;7.05;3.25;;;;;;;;;;5026272;28;20201;-86
2023/11/16 10:17:21;;;;;;;7.38;3.10;;;;;;;;;;5015300;28;20189;-86
2023/11/16 10:19:50;;;;;;;6.72;2.95;;;;;;;;;;5012347;28;20202;-86
2023/11/16 10:22:16;;;;;;;5.85;2.60;;;;;;;;;;5003926;28;20662;-86
2023/11/16 10:24:42;;;;;;;9.48;4.18;;;;;;;;;;5033904;28;20186;-86
2023/11/16 10:27:09;;;;;;;9.60;4.55;;;;;;;;;;5016853;28;20216;-86
2023/11/16 10:29:35;;;;;;;11.27;4.03;;;;;;;;;;5026081;28;20570;-86
2023/11/16 10:32:02;;;;;;;10.43;3.50;;;;;;;;;;5044270;28;20173;-86
2023/11/16 10:34:29;;;;;;;8.18;4.38;;;;;;;;;;5033860;28;20216;-86
2023/11/16 10:36:55;;;;;;;8.68;4.55;;;;;;;;;;5031793;28;20186;-86
2023/11/16 10:39:25;;;;;;;7.78;2.80;;;;;;;;;;5012958;28;20577;-86
2023/11/16 10:41:51;;;;;;;5.05;2.38;;;;;;;;;;5029023;28;20260;-86
2023/11/16 10:44:18;;;;;;;6.38;3.03;;;;;;;;;;5044324;28;20178;-86
2023/11/16 10:46:44;;;;;;;5.32;3.05;;;;;;;;;;5040191;28;20182;-86
2023/11/16 10:49:11;;;;;;;9.00;3.00;;;;;;;;;;5038920;28;20177;-85
2023/11/16 10:51:37;;;;;;;6.43;3.50;;;;;;;;;;5026792;28;20203;-84
2023/11/16 10:54:04;;;;;;;7.13;2.42;;;;;;;;;;5038915;28;20248;-83
2023/11/16 10:56:37;;;;;;;7.13;2.80;;;;;;;;;;5031262;28;20195;-85
2023/11/16 10:59:05;;;;;;;8.05;4.00;;;;;;;;;;5020481;28;20194;-85
2023/11/16 11:01:34;;;;;;;8.13;2.80;;;;;;;;;;5011440;28;20207;-85
2023/11/16 11:04:01;;;;;;;9.63;2.90;;;;;;;;;;5029690;28;20185;-85
2023/11/16 11:06:28;;;;;;;9.40;2.30;;;;;;;;;;5046274;28;20565;-85
2023/11/16 11:08:57;;;;;;;10.02;3.28;;;;;;;;;;5028707;28;20182;-85
2023/11/16 11:11:28;;;;;;;12.20;2.95;;;;;;;;;;5039504;28;20178;-85
2023/11/16 11:13:56;;;;;;;9.82;4.00;;;;;;;;;;5036991;28;20190;-85
2023/11/16 11:16:25;;;;;;;10.95;3.15;;;;;;;;;;5029614;28;20191;-85
2023/11/16 11:18:54;;;;;;;6.18;2.35;;;;;;;;;;5009991;28;20243;-84
2023/11/16 11:21:22;;;;;;;7.55;2.70;;;;;;;;;;5032640;28;20179;-85
2023/11/16 11:24:04;;;;;;;9.00;2.97;;;;;;;;;;5017561;28;20187;-85
2023/11/16 11:26:43;;;;;;;5.55;2.63;;;;;;;;;;5037775;28;20174;-83
2023/11/16 11:29:10;;;;;;;6.35;3.03;;;;;;;;;;5034186;28;20182;-84
2023/11/16 11:31:59;;;;;;;8.30;3.00;;;;;;;;;;5042309;28;20261;-85
2023/11/16 11:34:31;;;;;;;6.88;2.90;;;;;;;;;;5020086;28;20213;-85
2023/11/16 11:36:58;;;;;;;9.82;3.58;;;;;;;;;;5012137;28;20244;-85
2023/11/16 11:39:34;;;;;;;8.85;3.30;;;;;;;;;;5049078;28;20199;-85
2023/11/16 11:42:01;;;;;;;5.85;2.70;;;;;;;;;;5051552;28;20181;-85
2023/11/16 11:44:27;;;;;;;5.80;2.88;;;;;;;;;;5023089;28;20724;-85
2023/11/16 11:46:57;;;;;;;6.13;3.50;;;;;;;;;;5041523;28;20178;-85
2023/11/16 11:49:26;;;;;;;11.30;2.65;;;;;;;;;;5048936;28;20177;-85
2023/11/16 11:51:53;;;;;;;5.55;2.45;;;;;;;;;;5015219;28;20529;-85
2023/11/16 11:54:19;;;;;;;4.25;2.50;;;;;;;;;;5031003;28;20202;-85
2023/11/16 11:56:46;;;;;;;6.40;3.10;;;;;;;;;;5047088;28;20209;-84
2023/11/16 11:59:12;;;;;;;7.65;3.20;;;;;;;;;;5038233;28;20182;-85
2023/11/16 12:01:38;;;;;;;13.73;6.10;;;;;;;;;;5046300;28;20178;-85
2023/11/16 12:04:07;;;;;;;11.70;8.38;;;;;;;;;;5046813;28;20677;-85
2023/11/16 12:06:33;;;;;;;14.55;9.85;;;;;;;;;;5028481;28;20623;-85
2023/11/16 12:08:59;;;;;;;23.27;12.70;;;;;;;;;;5048585;28;20228;-85
2023/11/16 12:11:28;;;;;;;24.07;11.53;;;;;;;;;;5043205;28;20185;-85
2023/11/16 12:13:55;;;;;;;25.83;15.63;;;;;;;;;;5049102;28;20453;-85
2023/11/16 12:16:25;;;;;;;24.73;13.90;;;;;;;;;;5048653;28;20183;-86
2023/11/16 12:18:54;;;;;;;18.27;7.55;;;;;;;;;;5045863;28;20190;-85
2023/11/16 12:21:22;;;;;;;7.20;4.60;;;;;;;;;;5035539;28;20209;-85
2023/11/16 12:23:50;;;;;;;17.20;4.55;;;;;;;;;;5040852;28;20198;-85
2023/11/16 12:26:23;;;;;;;6.22;4.13;;;;;;;;;;5041036;28;20183;-85
2023/11/16 12:28:49;;;;;;;8.25;3.72;;;;;;;;;;5040050;28;20170;-85
2023/11/16 12:31:18;;;;;;;13.82;4.40;;;;;;;;;;5002395;28;20780;-84
2023/11/16 12:33:46;;;;;;;13.43;4.70;;;;;;;;;;5040601;28;20194;-84
2023/11/16 12:36:12;;;;;;;10.25;4.90;;;;;;;;;;5043445;28;20300;-85
2023/11/16 12:38:38;;;;;;;11.57;4.57;;;;;;;;;;5041759;28;20217;-85
2023/11/16 12:41:08;;;;;;;8.43;4.57;;;;;;;;;;5025044;28;20431;-85
2023/11/16 12:43:33;;;;;;;10.07;5.55;;;;;;;;;;5022363;28;20197;-85
2023/11/16 12:45:59;;;;;;;6.50;4.07;;;;;;;;;;5040553;28;20194;-85
2023/11/16 12:48:26;;;;;;;9.33;4.23;;;;;;;;;;5028060;28;20799;-85
2023/11/16 12:50:52;;;;;;;6.90;3.90;;;;;;;;;;5026212;28;20495;-85
2023/11/16 12:53:18;;;;;;;9.85;4.60;;;;;;;;;;5020113;28;20210;-85
2023/11/16 12:55:44;;;;;;;12.20;4.50;;;;;;;;;;5015951;28;20245;-85
2023/11/16 12:58:12;;;;;;;12.68;4.38;;;;;;;;;;5013057;28;20417;-85
2023/11/16 13:00:38;;;;;;;10.65;4.78;;;;;;;;;;5010984;28;20228;-85
2023/11/16 13:03:04;;;;;;;11.02;5.07;;;;;;;;;;5016322;28;20175;-85
2023/11/16 13:05:31;;;;;;;8.98;3.90;;;;;;;;;;5037749;28;20541;-85
2023/11/16 13:07:57;;;;;;;7.03;3.45;;;;;;;;;;5026922;28;20545;-85
2023/11/16 13:10:23;;;;;;;7.20;3.65;;;;;;;;;;5028334;28;20206;-85
2023/11/16 13:12:49;;;;;;;13.18;4.28;;;;;;;;;;5045184;28;20255;-85
2023/11/16 13:15:16;;;;;;;19.92;4.40;;;;;;;;;;5026466;28;20197;-85
2023/11/16 13:17:42;;;;;;;7.97;3.35;;;;;;;;;;5016329;28;20185;-86
2023/11/16 13:20:09;;;;;;;9.30;3.75;;;;;;;;;;5036727;28;20186;-87
2023/11/16 13:22:35;;;;;;;7.63;4.35;;;;;;;;;;5022985;28;20185;-86
2023/11/16 13:25:01;;;;;;;10.70;4.20;;;;;;;;;;5038476;28;20194;-86
2023/11/16 13:27:27;;;;;;;9.63;4.30;;;;;;;;;;5046052;28;20405;-86
2023/11/16 13:29:53;;;;;;;7.57;4.38;;;;;;;;;;5041552;28;20241;-86
2023/11/16 13:32:20;;;;;;;9.77;4.35;;;;;;;;;;5004636;28;20193;-86
2023/11/16 13:34:46;;;;;;;13.43;3.95;;;;;;;;;;5041179;28;20205;-86
2023/11/16 13:37:12;;;;;;;9.45;4.15;;;;;;;;;;5009305;28;20217;-86
2023/11/16 13:39:40;;;;;;;7.80;5.35;;;;;;;;;;5042834;28;20259;-86
2023/11/16 13:42:06;;;;;;;12.05;4.40;;;;;;;;;;5034405;28;20179;-86
2023/11/16 13:44:32;;;;;;;11.15;3.80;;;;;;;;;;5043744;28;20182;-86
2023/11/16 13:46:58;;;;;;;11.43;3.50;;;;;;;;;;5001914;28;20182;-86
2023/11/16 13:49:24;;;;;;;9.32;4.30;;;;;;;;;;5027108;28;20416;-87
2023/11/16 13:51:51;;;;;;;8.13;3.10;;;;;;;;;;5013508;28;20229;-87
2023/11/16 13:54:17;;;;;;;8.90;4.20;;;;;;;;;;5041966;28;20602;-85
2023/11/16 13:56:48;;;;;;;14.23;4.50;;;;;;;;;;5041136;28;20185;-86
2023/11/16 13:59:16;;;;;;;9.32;5.30;;;;;;;;;;5019931;28;20432;-86
2023/11/16 14:01:42;;;;;;;10.50;4.70;;;;;;;;;;5021056;28;20208;-87
2023/11/16 14:04:09;;;;;;;13.27;4.47;;;;;;;;;;5017465;28;20213;-87
2023/11/16 14:06:35;;;;;;;15.52;6.82;;;;;;;;;;5035105;28;20428;-84
2023/11/16 14:09:01;;;;;;;14.98;7.15;;;;;;;;;;5045604;28;20266;-86
2023/11/16 14:11:27;;;;;;;11.10;4.47;;;;;;;;;;5038711;28;20705;-85
2023/11/16 14:13:53;;;;;;;8.73;4.55;;;;;;;;;;5022625;28;20816;-86
2023/11/16 14:16:19;;;;;;;7.05;3.90;;;;;;;;;;5015120;28;20189;-86
2023/11/16 14:18:45;;;;;;;6.63;3.80;;;;;;;;;;5003094;28;20189;-86
2023/11/16 14:21:12;;;;;;;13.27;6.67;;;;;;;;;;5031175;28;20538;-86
2023/11/16 14:23:39;;;;;;;11.55;5.07;;;;;;;;;;5012991;28;20427;-86
2023/11/16 14:26:08;;;;;;;20.90;5.75;;;;;;;;;;5039745;28;20269;-86
2023/11/16 14:28:34;;;;;;;8.23;4.53;;;;;;;;;;5044631;28;20178;-86
2023/11/16 14:31:00;;;;;;;9.27;5.50;;;;;;;;;;5038553;28;20233;-87
2023/11/16 14:33:26;;;;;;;9.07;5.33;;;;;;;;;;5002446;28;20206;-87
2023/11/16 14:35:52;;;;;;;13.10;6.03;;;;;;;;;;5021701;28;20432;-87
2023/11/16 14:38:18;;;;;;;8.57;4.28;;;;;;;;;;5025622;28;20414;-87
2023/11/16 14:40:44;;;;;;;8.77;4.10;;;;;;;;;;5010777;28;20268;-86